Time;durP1;ratioP1;P1;durP2;ratioP2;P2;SDS_P1;SDS_P2;PMS_P1;PMS_P2;Temp;Humidity;BMP_temperature;BMP_pressure;BME280_temperature;BME280_humidity;BME280_pressure;Samples;Min_cycle;Max_cycle;Signal;HPM_P1;HPM_P2
2024/02/05 06:55:13;;;;;;;14.37;6.10;;;;;;;;;;10609778;22;20040;-84
2024/02/05 07:00:15;;;;;;;17.80;8.13;;;;;;;;;;10549940;28;20597;-85
2024/02/05 07:05:16;;;;;;;13.30;6.18;;;;;;;;;;10580333;28;20028;-84
2024/02/05 07:10:17;;;;;;;;;;;;;;;;;;10574203;28;20055;-84
2024/02/05 07:15:18;;;;;;;16.77;6.05;;;;;;;;;;10591617;28;20305;-85
2024/02/05 07:20:19;;;;;;;14.98;5.28;;;;;;;;;;10575650;28;20562;-85
2024/02/05 07:25:20;;;;;;;;;;;;;;;;;;10570561;28;20542;-84
2024/02/05 07:30:21;;;;;;;14.10;4.53;;;;;;;;;;10571890;28;20034;-85
2024/02/05 07:35:23;;;;;;;20.92;9.13;;;;;;;;;;10613019;27;20049;-82
2024/02/05 07:40:24;;;;;;;20.60;6.43;;;;;;;;;;10590271;28;20028;-84
2024/02/05 07:45:25;;;;;;;14.95;5.15;;;;;;;;;;10578841;28;20078;-84
2024/02/05 07:50:26;;;;;;;15.63;6.00;;;;;;;;;;10574112;28;20038;-84
2024/02/05 07:55:28;;;;;;;15.50;5.50;;;;;;;;;;10531423;28;20127;-84
2024/02/05 08:00:29;;;;;;;;;;;;;;;;;;10532006;28;20036;-83
2024/02/05 08:05:30;;;;;;;9.20;3.70;;;;;;;;;;10533250;28;20322;-82
2024/02/05 08:10:31;;;;;;;15.05;4.93;;;;;;;;;;10556673;28;20239;-84
2024/02/05 08:15:32;;;;;;;;;;;;;;;;;;10562185;28;20024;-82
2024/02/05 08:20:33;;;;;;;11.13;4.55;;;;;;;;;;10559002;28;19984;-84
2024/02/05 08:25:34;;;;;;;;;;;;;;;;;;10546211;28;20368;-83
2024/02/05 08:30:35;;;;;;;21.30;5.30;;;;;;;;;;10548976;28;19976;-83
2024/02/05 08:35:36;;;;;;;18.55;4.60;;;;;;;;;;10565783;28;20028;-83
2024/02/05 08:40:37;;;;;;;17.27;5.15;;;;;;;;;;10546760;28;20025;-83
2024/02/05 08:45:40;;;;;;;18.23;7.15;;;;;;;;;;10578616;28;20024;-83
2024/02/05 08:50:41;;;;;;;13.73;5.22;;;;;;;;;;10580869;28;20024;-82
2024/02/05 08:55:42;;;;;;;18.92;6.53;;;;;;;;;;10535202;28;20035;-82
2024/02/05 09:00:44;;;;;;;15.35;4.70;;;;;;;;;;10532089;28;20123;-84
2024/02/05 09:05:45;;;;;;;;;;;;;;;;;;10526350;28;20024;-83
2024/02/05 09:10:48;;;;;;;17.00;5.93;;;;;;;;;;10544954;28;19908;-83
2024/02/05 09:15:49;;;;;;;13.18;4.68;;;;;;;;;;10529045;28;20082;-83
2024/02/05 09:20:53;;;;;;;;;;;;;;;;;;10530000;28;20530;-82
2024/02/05 09:25:55;;;;;;;15.27;6.43;;;;;;;;;;10531263;28;19903;-83
2024/02/05 09:30:58;;;;;;;12.25;4.55;;;;;;;;;;10552005;28;20028;-83
2024/02/05 09:36:00;;;;;;;9.00;3.97;;;;;;;;;;10553703;28;20020;-84
2024/02/05 09:41:00;;;;;;;;;;;;;;;;;;10535897;28;20030;-83
2024/02/05 09:46:05;;;;;;;12.15;4.03;;;;;;;;;;10552328;28;19907;-83
2024/02/05 09:51:06;;;;;;;11.65;3.90;;;;;;;;;;10534484;28;20128;-83
2024/02/05 09:56:07;;;;;;;;;;;;;;;;;;10564486;28;20082;-82
2024/02/05 10:01:09;;;;;;;14.65;4.63;;;;;;;;;;10563933;28;19918;-83
2024/02/05 10:06:11;;;;;;;15.85;4.18;;;;;;;;;;10539159;28;20063;-83
2024/02/05 10:11:14;;;;;;;10.70;4.53;;;;;;;;;;10533878;28;20032;-84
2024/02/05 10:16:15;;;;;;;11.98;3.90;;;;;;;;;;10553201;28;20391;-85
2024/02/05 10:27:06;;;;;;;9.57;4.00;;;;;;;;;;10554457;28;19930;-83
2024/02/05 10:32:11;;;;;;;12.88;3.72;;;;;;;;;;10547862;28;20055;-82
2024/02/05 10:37:15;;;;;;;;;;;;;;;;;;10533102;28;20070;-83
2024/02/05 10:42:17;;;;;;;12.02;4.45;;;;;;;;;;10531821;28;19908;-84
2024/02/05 10:47:19;;;;;;;;;;;;;;;;;;10549912;28;20058;-84
2024/02/05 10:52:22;;;;;;;15.40;4.80;;;;;;;;;;10531099;28;19915;-86
2024/02/05 10:57:25;;;;;;;21.48;6.13;;;;;;;;;;10530815;28;20115;-84
2024/02/05 11:02:28;;;;;;;13.07;3.65;;;;;;;;;;10534387;28;20024;-86
2024/02/05 11:07:49;;;;;;;11.85;4.65;;;;;;;;;;10534698;28;20127;-84
2024/02/05 11:12:55;;;;;;;12.02;4.50;;;;;;;;;;10551237;28;20032;-84
2024/02/05 11:17:57;;;;;;;16.17;5.28;;;;;;;;;;10553198;28;20020;-83
2024/02/05 11:22:59;;;;;;;11.98;3.97;;;;;;;;;;10567980;28;20025;-83
2024/02/05 11:28:01;;;;;;;12.35;3.90;;;;;;;;;;10556689;28;20434;-83
2024/02/05 11:33:02;;;;;;;15.07;5.65;;;;;;;;;;10538920;28;20082;-84
2024/02/05 11:38:06;;;;;;;12.00;4.60;;;;;;;;;;10557490;28;20465;-84
2024/02/05 11:43:07;;;;;;;14.93;4.82;;;;;;;;;;10556953;28;20024;-83
2024/02/05 11:48:10;;;;;;;;;;;;;;;;;;10539137;28;20123;-84
2024/02/05 11:53:11;;;;;;;16.67;4.97;;;;;;;;;;10557506;28;19947;-84
2024/02/05 11:58:15;;;;;;;16.77;4.40;;;;;;;;;;10558548;28;20107;-83
2024/02/05 12:03:16;;;;;;;15.13;5.68;;;;;;;;;;10557746;28;20063;-85
2024/02/05 12:08:18;;;;;;;13.50;4.57;;;;;;;;;;10557500;28;20017;-83
2024/02/05 12:13:19;;;;;;;16.05;5.15;;;;;;;;;;10545833;28;20028;-84
2024/02/05 12:18:20;;;;;;;;;;;;;;;;;;10546030;28;20430;-83
2024/02/05 12:23:21;;;;;;;11.43;4.07;;;;;;;;;;10559392;28;19908;-84
2024/02/05 12:28:22;;;;;;;;;;;;;;;;;;10568193;28;20044;-83
2024/02/05 12:33:23;;;;;;;11.05;4.63;;;;;;;;;;10562601;28;19939;-80
2024/02/05 12:38:32;;;;;;;;;;;;;;;;;;10566596;28;20034;-84
2024/02/05 12:43:35;;;;;;;15.75;4.97;;;;;;;;;;10551890;28;19958;-82
2024/02/05 12:48:40;;;;;;;12.38;4.40;;;;;;;;;;10533725;28;20567;-83
2024/02/05 12:53:59;;;;;;;9.88;3.97;;;;;;;;;;10583517;22;20089;-84
2024/02/05 12:59:05;;;;;;;11.13;3.63;;;;;;;;;;10593370;28;20032;-85
2024/02/05 13:09:52;;;;;;;9.43;3.40;;;;;;;;;;10602679;28;20449;-85
2024/02/05 13:15:30;;;;;;;8.73;3.65;;;;;;;;;;10597400;28;20016;-84
2024/02/05 13:20:38;;;;;;;20.20;7.50;;;;;;;;;;10571721;28;20051;-85
2024/02/05 13:26:03;;;;;;;12.55;4.22;;;;;;;;;;10571866;28;20062;-84
2024/02/05 13:36:47;;;;;;;16.77;4.93;;;;;;;;;;10628381;28;19911;-85
2024/02/05 13:41:48;;;;;;;10.63;3.88;;;;;;;;;;10580176;28;20089;-85
2024/02/05 14:03:39;;;;;;;10.63;3.58;;;;;;;;;;10465168;28;20428;-85
2024/02/05 14:09:11;;;;;;;18.42;4.68;;;;;;;;;;10458346;28;20041;-86
2024/02/05 14:14:40;;;;;;;16.45;4.82;;;;;;;;;;10450045;28;20021;-85
2024/02/05 14:25:59;;;;;;;12.73;3.85;;;;;;;;;;10454155;28;20025;-85
2024/02/05 14:31:29;;;;;;;12.85;7.00;;;;;;;;;;10455759;28;20072;-86
2024/02/05 14:36:30;;;;;;;15.38;4.55;;;;;;;;;;10571683;28;20024;-85
2024/02/05 14:41:31;;;;;;;9.63;4.00;;;;;;;;;;10571702;28;20126;-85
2024/02/05 14:46:32;;;;;;;;;;;;;;;;;;10570045;28;20063;-85
2024/02/05 14:51:34;;;;;;;6.93;2.70;;;;;;;;;;10596010;28;19929;-85
2024/02/05 14:56:35;;;;;;;8.35;2.92;;;;;;;;;;10599007;28;20121;-84
2024/02/05 15:01:36;;;;;;;;;;;;;;;;;;10581215;28;20046;-84
2024/02/05 15:06:37;;;;;;;;;;;;;;;;;;10593109;28;19918;-84
2024/02/05 15:11:42;;;;;;;10.70;3.28;;;;;;;;;;10598156;28;19965;-83
2024/02/05 15:16:43;;;;;;;11.52;3.38;;;;;;;;;;10603616;28;20016;-83
2024/02/05 15:21:44;;;;;;;8.75;3.30;;;;;;;;;;10582894;28;20049;-82
2024/02/05 15:26:48;;;;;;;9.02;3.17;;;;;;;;;;10584101;28;20024;-83
2024/02/05 15:31:49;;;;;;;13.35;3.90;;;;;;;;;;10584068;28;20035;-83
2024/02/05 15:36:50;;;;;;;12.13;3.63;;;;;;;;;;10581461;28;20026;-82
2024/02/05 15:41:51;;;;;;;11.88;3.90;;;;;;;;;;10583748;28;20221;-81
2024/02/05 15:46:52;;;;;;;8.40;3.35;;;;;;;;;;10584149;28;20035;-83
2024/02/05 15:51:56;;;;;;;12.63;3.80;;;;;;;;;;10581068;28;20078;-81
2024/02/05 15:56:57;;;;;;;14.15;4.00;;;;;;;;;;10596147;28;20024;-82
2024/02/05 16:01:58;;;;;;;10.18;3.55;;;;;;;;;;10579089;28;20035;-83
2024/02/05 16:07:05;;;;;;;;;;;;;;;;;;10579705;28;20498;-83
2024/02/05 16:12:09;;;;;;;20.33;5.05;;;;;;;;;;10580835;28;20468;-84
2024/02/05 16:17:10;;;;;;;13.00;4.50;;;;;;;;;;10598680;28;20016;-83
2024/02/05 16:22:11;;;;;;;14.25;4.78;;;;;;;;;;10581170;28;20467;-83
2024/02/05 16:27:12;;;;;;;14.18;5.43;;;;;;;;;;10597910;28;20027;-84
2024/02/05 16:32:13;;;;;;;11.75;4.45;;;;;;;;;;10581699;28;20118;-85
2024/02/05 16:37:14;;;;;;;12.55;4.50;;;;;;;;;;10585877;28;20024;-84
2024/02/05 16:42:24;;;;;;;;;;;;;;;;;;10582569;28;20028;-84
2024/02/05 16:47:26;;;;;;;12.25;5.30;;;;;;;;;;10581768;28;19903;-85
2024/02/05 16:52:27;;;;;;;13.20;4.50;;;;;;;;;;10583920;28;20030;-84
2024/02/05 16:57:28;;;;;;;13.13;4.93;;;;;;;;;;10583345;28;20020;-86
2024/02/05 17:02:29;;;;;;;12.57;4.97;;;;;;;;;;10584808;28;20026;-85
2024/02/05 17:07:30;;;;;;;11.80;4.30;;;;;;;;;;10588414;28;20030;-81
2024/02/05 17:17:41;;;;;;;9.43;3.58;;;;;;;;;;10606064;28;19922;-87
2024/02/05 17:22:42;;;;;;;13.25;4.15;;;;;;;;;;10574626;28;20114;-86
2024/02/05 17:27:43;;;;;;;;;;;;;;;;;;10574366;28;20047;-87
2024/02/05 17:32:44;;;;;;;21.17;11.68;;;;;;;;;;10579827;28;19962;-86
2024/02/05 17:37:45;;;;;;;48.67;28.17;;;;;;;;;;10576773;28;20499;-85
2024/02/05 17:42:46;;;;;;;;;;;;;;;;;;10572611;28;20027;-88
2024/02/05 17:47:47;;;;;;;14.70;4.80;;;;;;;;;;10574918;28;20365;-86
2024/02/05 17:52:49;;;;;;;;;;;;;;;;;;10573971;28;20438;-87
2024/02/05 17:57:50;;;;;;;16.05;5.47;;;;;;;;;;10576573;28;19910;-87
2024/02/05 18:02:53;;;;;;;14.48;4.63;;;;;;;;;;10586690;28;20144;-85
2024/02/05 18:07:54;;;;;;;14.85;4.68;;;;;;;;;;10575118;28;20031;-88
2024/02/05 18:12:55;;;;;;;;;;;;;;;;;;10594581;28;20087;-83
2024/02/05 18:17:57;;;;;;;14.18;5.10;;;;;;;;;;10576938;28;19903;-86
2024/02/05 18:22:58;;;;;;;14.73;4.40;;;;;;;;;;10582932;28;20024;-85
2024/02/05 18:27:59;;;;;;;11.65;3.92;;;;;;;;;;10602205;28;20502;-83
2024/02/05 18:33:00;;;;;;;12.70;4.00;;;;;;;;;;10587124;28;20055;-82
2024/02/05 18:38:03;;;;;;;;;;;;;;;;;;10579420;28;20506;-85
2024/02/05 18:43:04;;;;;;;14.50;4.55;;;;;;;;;;10574665;28;19904;-85
2024/02/05 18:48:05;;;;;;;14.60;4.30;;;;;;;;;;10582427;28;20028;-85
2024/02/05 18:53:32;;;;;;;29.80;14.95;;;;;;;;;;10623903;22;20052;-84
2024/02/05 18:58:42;;;;;;;13.23;4.65;;;;;;;;;;10503739;28;20020;-86
2024/02/05 19:04:12;;;;;;;15.73;4.68;;;;;;;;;;10507064;28;20032;-84
2024/02/05 19:09:13;;;;;;;9.98;4.05;;;;;;;;;;10523488;28;20044;-83
2024/02/05 19:14:17;;;;;;;11.43;4.45;;;;;;;;;;10495061;28;20037;-83
2024/02/05 19:19:45;;;;;;;12.82;4.93;;;;;;;;;;10519894;28;20059;-84
2024/02/05 19:24:53;;;;;;;12.45;5.50;;;;;;;;;;10513192;28;20037;-84
2024/02/05 19:29:56;;;;;;;35.60;20.30;;;;;;;;;;10530612;28;20051;-85
2024/02/05 19:34:59;;;;;;;16.98;7.13;;;;;;;;;;10527322;28;20103;-85
2024/02/05 19:40:00;;;;;;;38.83;26.02;;;;;;;;;;10517096;28;20076;-85
2024/02/05 19:45:01;;;;;;;23.65;13.38;;;;;;;;;;10519796;28;20059;-83
2024/02/05 19:50:02;;;;;;;;;;;;;;;;;;10551250;28;20020;-84
2024/02/05 19:55:11;;;;;;;17.23;8.27;;;;;;;;;;10534959;28;19908;-84
2024/02/05 20:00:12;;;;;;;19.70;8.10;;;;;;;;;;10533626;28;20067;-85
2024/02/05 20:05:35;;;;;;;16.40;8.23;;;;;;;;;;10499680;28;20392;-85
